createdAt,value
2019-05-05T00:02:04.448Z,92.50
2019-05-05T00:04:39.514Z,92.90
2019-05-05T00:07:09.704Z,93.10
2019-05-05T00:09:39.757Z,92.80
2019-05-05T00:12:28.108Z,93.70
2019-05-05T00:15:02.548Z,93.20
2019-05-05T00:17:34.870Z,93.70
2019-05-05T00:20:07.595Z,94.20
2019-05-05T00:22:37.655Z,93.20
2019-05-05T00:25:08.523Z,94.00
2019-05-05T00:27:38.746Z,94.30
2019-05-05T00:30:09.080Z,93.80
2019-05-05T00:32:39.297Z,93.30
2019-05-05T00:35:09.595Z,94.30
2019-05-05T00:37:39.784Z,93.80
2019-05-05T00:40:11.457Z,93.90
2019-05-05T00:42:41.666Z,93.70
2019-05-05T00:45:14.644Z,93.80
2019-05-05T00:48:01.352Z,93.70
2019-05-05T00:50:31.362Z,93.70
2019-05-05T00:53:02.834Z,93.70
2019-05-05T00:55:34.865Z,93.70
2019-05-05T00:58:05.299Z,93.60
2019-05-05T01:00:44.462Z,93.30
2019-05-05T01:03:15.397Z,93.10
2019-05-05T01:05:56.346Z,92.90
2019-05-05T01:08:30.451Z,93.00
2019-05-05T01:11:00.684Z,93.80
2019-05-05T01:13:30.869Z,93.00
2019-05-05T01:16:01.259Z,93.70
2019-05-05T01:18:34.982Z,93.60
2019-05-05T01:21:07.850Z,94.10
2019-05-05T01:23:37.840Z,94.20
2019-05-05T01:26:08.451Z,94.70
2019-05-05T01:28:39.345Z,94.50
2019-05-05T01:31:11.127Z,94.60
2019-05-05T01:33:51.846Z,94.10
2019-05-05T01:36:24.032Z,94.00
2019-05-05T01:39:11.465Z,93.80
2019-05-05T01:41:45.199Z,93.70
2019-05-05T01:44:15.248Z,93.50
2019-05-05T01:46:45.826Z,93.40
2019-05-05T01:49:16.016Z,93.20
2019-05-05T01:51:46.290Z,93.60
2019-05-05T01:54:17.005Z,93.00
2019-05-05T01:56:47.717Z,93.40
2019-05-05T01:59:18.110Z,93.60
2019-05-05T02:01:48.308Z,93.00
2019-05-05T02:04:18.521Z,93.00
2019-05-05T02:06:48.749Z,92.80
2019-05-05T02:09:22.208Z,92.30
2019-05-05T02:11:54.532Z,92.40
2019-05-05T02:14:24.925Z,92.50
2019-05-05T02:16:56.582Z,92.40
2019-05-05T02:19:26.903Z,92.30
2019-05-05T02:21:57.059Z,92.00
2019-05-05T02:24:27.113Z,91.70
2019-05-05T02:26:57.578Z,92.80
2019-05-05T02:29:29.422Z,92.30
2019-05-05T02:32:17.322Z,91.90
2019-05-05T02:34:49.166Z,92.30
2019-05-05T02:37:19.262Z,92.30
2019-05-05T02:39:57.800Z,92.40
2019-05-05T02:42:27.215Z,92.80
2019-05-05T02:45:00.786Z,92.90
2019-05-05T02:47:37.082Z,92.80
2019-05-05T02:50:08.435Z,92.80
2019-05-05T02:52:40.731Z,93.00
2019-05-05T02:55:14.564Z,92.90
2019-05-05T02:57:43.994Z,92.50
2019-05-05T03:00:24.748Z,92.80
2019-05-05T03:03:04.332Z,92.60
2019-05-05T03:05:34.410Z,92.30
2019-05-05T03:08:06.300Z,92.50
2019-05-05T03:10:38.199Z,92.60
2019-05-05T03:13:10.541Z,92.10
2019-05-05T03:15:52.135Z,93.10
2019-05-05T03:18:24.619Z,93.30
2019-05-05T03:21:02.344Z,93.60
2019-05-05T03:23:27.169Z,93.80
2019-05-05T03:25:57.767Z,92.90
2019-05-05T03:28:29.775Z,92.80
2019-05-05T03:31:00.172Z,93.40
2019-05-05T03:33:30.659Z,93.10
2019-05-05T03:36:03.461Z,93.30
2019-05-05T03:38:33.689Z,92.60
2019-05-05T03:41:06.112Z,92.30
2019-05-05T03:43:38.006Z,92.60
2019-05-05T03:46:10.144Z,92.50
2019-05-05T03:48:43.836Z,92.50
2019-05-05T03:51:20.552Z,92.80
2019-05-05T03:53:48.406Z,93.10
2019-05-05T03:56:19.748Z,92.20
2019-05-05T03:58:54.244Z,92.30
2019-05-05T04:01:48.850Z,92.80
2019-05-05T04:04:24.409Z,92.50
2019-05-05T04:06:56.698Z,92.10
2019-05-05T04:09:27.948Z,91.80
2019-05-05T04:11:57.924Z,91.10
2019-05-05T04:14:28.068Z,90.90
2019-05-05T04:17:16.333Z,91.10
2019-05-05T04:19:50.924Z,90.60
2019-05-05T04:22:21.178Z,90.90
2019-05-05T04:24:51.341Z,90.70
2019-05-05T04:27:23.762Z,90.50
2019-05-05T04:29:54.534Z,91.10
2019-05-05T04:32:24.741Z,91.80
2019-05-05T04:34:54.967Z,91.10
2019-05-05T04:37:25.053Z,90.90
2019-05-05T04:39:55.289Z,90.70
2019-05-05T04:42:25.506Z,91.10
2019-05-05T04:44:55.764Z,91.60
2019-05-05T04:47:43.773Z,91.60
2019-05-05T04:50:21.262Z,92.00
2019-05-05T04:52:54.022Z,92.10
2019-05-05T04:55:24.519Z,91.60
2019-05-05T04:57:54.904Z,92.20
2019-05-05T05:00:25.162Z,91.80
2019-05-05T05:03:06.037Z,92.10
2019-05-05T05:05:55.920Z,91.30
2019-05-05T05:08:26.122Z,91.20
2019-05-05T05:10:56.213Z,89.00
2019-05-05T05:13:26.370Z,89.30
2019-05-05T05:15:56.565Z,90.10
2019-05-05T05:18:26.546Z,89.30
2019-05-05T05:20:56.814Z,83.20
2019-05-05T05:23:29.637Z,83.60
2019-05-05T05:25:59.235Z,83.40
2019-05-05T05:28:29.326Z,85.60
2019-05-05T05:30:59.456Z,87.90
2019-05-05T05:33:29.641Z,88.30
2019-05-05T05:35:59.766Z,87.60
2019-05-05T05:38:29.819Z,90.50
2019-05-05T05:41:10.991Z,90.00
2019-05-05T05:43:59.057Z,90.30
2019-05-05T05:46:36.526Z,90.10
2019-05-05T05:49:17.504Z,90.20
2019-05-05T05:51:47.631Z,90.40
2019-05-05T05:54:18.682Z,91.00
2019-05-05T05:56:48.815Z,91.20
2019-05-05T05:59:18.969Z,91.60
2019-05-05T06:01:50.765Z,91.00
2019-05-05T06:04:23.418Z,90.60
2019-05-05T06:06:54.390Z,90.90
2019-05-05T06:09:24.696Z,91.20
2019-05-05T06:11:54.972Z,91.60
2019-05-05T06:14:25.133Z,91.30
2019-05-05T06:16:55.200Z,91.50
2019-05-05T06:19:25.315Z,91.50
2019-05-05T06:21:55.488Z,91.50
2019-05-05T06:24:25.789Z,90.90
2019-05-05T06:26:55.985Z,91.60
2019-05-05T06:29:26.344Z,91.80
2019-05-05T06:31:56.435Z,91.70
2019-05-05T06:34:26.690Z,91.80
2019-05-05T06:36:56.814Z,91.10
2019-05-05T06:39:27.005Z,90.70
2019-05-05T06:41:58.979Z,91.90
2019-05-05T06:44:33.906Z,91.80
2019-05-05T06:47:07.186Z,91.60
2019-05-05T06:49:37.457Z,91.30
2019-05-05T06:52:07.786Z,91.60
2019-05-05T06:54:37.908Z,91.30
2019-05-05T06:57:07.998Z,91.90
2019-05-05T06:59:39.662Z,92.00
2019-05-05T07:02:09.817Z,91.70
2019-05-05T07:04:55.592Z,91.10
2019-05-05T07:07:25.795Z,91.00
2019-05-05T07:09:55.940Z,91.30
2019-05-05T07:12:26.475Z,91.10
2019-05-05T07:14:56.576Z,91.10
2019-05-05T07:17:26.822Z,90.30
2019-05-05T07:19:57.344Z,90.50
2019-05-05T07:22:27.551Z,91.30
2019-05-05T07:24:57.712Z,91.20
2019-05-05T07:27:28.543Z,91.70
2019-05-05T07:29:58.562Z,91.40
2019-05-05T07:32:28.789Z,90.40
2019-05-05T07:35:18.058Z,91.30
2019-05-05T07:37:48.184Z,90.60
2019-05-05T07:40:18.397Z,90.70
2019-05-05T07:42:49.137Z,91.70
2019-05-05T07:45:22.984Z,90.90
2019-05-05T07:47:51.527Z,91.00
2019-05-05T07:50:31.812Z,90.40
2019-05-05T07:52:54.574Z,89.60
2019-05-05T07:55:24.834Z,87.60
2019-05-05T07:57:54.893Z,85.80
2019-05-05T08:00:24.964Z,87.20
2019-05-05T08:02:55.027Z,85.10
2019-05-05T08:05:26.313Z,83.10
2019-05-05T08:07:56.353Z,79.80
2019-05-05T08:10:27.825Z,79.10
2019-05-05T08:12:58.957Z,81.00
2019-05-05T08:15:29.509Z,81.10
2019-05-05T08:18:17.453Z,77.00
2019-05-05T08:20:49.427Z,77.70
2019-05-05T08:23:30.331Z,79.80
2019-05-05T08:26:09.600Z,75.50
2019-05-05T08:28:44.285Z,77.50
2019-05-05T08:31:33.944Z,74.40
2019-05-05T08:34:04.264Z,74.00
2019-05-05T08:36:34.575Z,71.40
2019-05-05T08:39:06.929Z,71.80
2019-05-05T08:41:37.146Z,74.90
2019-05-05T08:44:07.289Z,74.40
2019-05-05T08:49:26.557Z,69.70
2019-05-05T08:51:56.805Z,70.80
2019-05-05T08:54:26.906Z,72.60
2019-05-05T08:56:56.878Z,72.00
2019-05-05T08:59:26.955Z,70.90
2019-05-05T09:01:57.013Z,69.80
2019-05-05T09:04:28.482Z,70.10
2019-05-05T09:07:00.309Z,70.90
2019-05-05T09:09:33.648Z,67.20
2019-05-05T09:12:04.575Z,68.40
2019-05-05T09:14:48.075Z,68.40
2019-05-05T09:17:18.265Z,67.50
2019-05-05T09:19:48.493Z,65.80
2019-05-05T09:22:18.851Z,66.60
2019-05-05T09:24:56.895Z,64.70
2019-05-05T09:27:44.147Z,66.70
2019-05-05T09:30:16.417Z,65.40
2019-05-05T09:32:49.603Z,64.20
2019-05-05T09:35:19.951Z,63.70
2019-05-05T09:37:53.518Z,65.80
2019-05-05T09:40:26.263Z,65.30
2019-05-05T09:42:56.884Z,60.90
2019-05-05T09:48:29.374Z,60.50
2019-05-05T09:50:59.579Z,59.00
2019-05-05T09:53:29.803Z,59.50
2019-05-05T09:56:04.099Z,60.50
2019-05-05T09:58:34.835Z,58.00
2019-05-05T10:01:08.719Z,61.40
2019-05-05T10:03:39.312Z,58.30
2019-05-05T10:06:14.219Z,56.10
2019-05-05T10:08:44.725Z,58.10
2019-05-05T10:11:16.665Z,58.30
2019-05-05T10:13:46.899Z,58.70
2019-05-05T10:16:17.120Z,58.70
2019-05-05T10:18:47.383Z,55.10
2019-05-05T10:21:17.947Z,56.30
2019-05-05T10:23:49.647Z,55.40
2019-05-05T10:26:19.807Z,55.50
2019-05-05T10:28:50.024Z,55.90
2019-05-05T10:31:20.261Z,53.80
2019-05-05T10:33:53.893Z,57.60
2019-05-05T10:36:25.475Z,55.80
2019-05-05T10:39:09.581Z,56.50
2019-05-05T10:41:39.913Z,55.30
2019-05-05T10:44:14.119Z,54.30
2019-05-05T10:46:44.539Z,54.70
2019-05-05T10:49:14.631Z,56.50
2019-05-05T10:51:45.507Z,54.10
2019-05-05T10:54:15.622Z,54.60
2019-05-05T10:56:45.867Z,54.30
2019-05-05T10:59:16.193Z,52.70
2019-05-05T11:01:48.934Z,52.80
2019-05-05T11:04:18.987Z,54.70
2019-05-05T11:06:49.326Z,54.90
2019-05-05T11:09:20.037Z,53.30
2019-05-05T11:11:50.468Z,53.40
2019-05-05T11:14:20.702Z,54.60
2019-05-05T11:16:50.905Z,55.30
2019-05-05T11:19:21.288Z,54.10
2019-05-05T11:21:51.607Z,54.00
2019-05-05T11:24:23.649Z,53.90
2019-05-05T11:26:54.608Z,54.10
2019-05-05T11:29:24.695Z,53.20
2019-05-05T11:31:55.253Z,53.80
2019-05-05T11:34:27.331Z,53.50
2019-05-05T11:37:11.780Z,53.40
2019-05-05T11:39:41.984Z,53.70
2019-05-05T11:42:12.199Z,51.80
2019-05-05T11:45:04.241Z,53.20
2019-05-05T11:47:34.552Z,54.20
2019-05-05T11:50:06.185Z,52.90
2019-05-05T11:52:36.466Z,55.90
2019-05-05T11:55:14.989Z,54.10
2019-05-05T11:57:45.715Z,55.10
2019-05-05T12:00:31.730Z,54.40
2019-05-05T12:03:04.443Z,55.30
2019-05-05T12:05:35.631Z,54.60
2019-05-05T12:08:05.836Z,54.10
2019-05-05T12:10:37.662Z,54.30
2019-05-05T12:13:14.583Z,55.40
2019-05-05T12:15:45.849Z,55.80
2019-05-05T12:18:17.466Z,55.60
2019-05-05T12:20:47.938Z,56.60
2019-05-05T12:23:18.569Z,55.40
2019-05-05T12:25:50.432Z,56.00
2019-05-05T12:28:25.262Z,55.40
2019-05-05T12:31:04.386Z,54.60
2019-05-05T12:33:34.605Z,55.10
2019-05-05T12:36:25.538Z,55.40
2019-05-05T12:38:55.736Z,54.50
2019-05-05T12:41:25.828Z,53.80
2019-05-05T12:43:56.290Z,54.20
2019-05-05T12:46:35.636Z,54.60
2019-05-05T12:49:09.091Z,55.20
2019-05-05T12:51:39.552Z,54.60
2019-05-05T12:54:09.961Z,55.70
2019-05-05T12:56:41.103Z,55.90
2019-05-05T12:59:14.291Z,55.80
2019-05-05T13:01:44.285Z,57.30
2019-05-05T13:04:14.435Z,58.70
2019-05-05T13:06:46.293Z,58.30
2019-05-05T13:09:18.604Z,58.60
2019-05-05T13:14:38.293Z,56.70
2019-05-05T13:17:08.633Z,54.90
2019-05-05T13:19:40.398Z,56.90
2019-05-05T13:22:12.297Z,56.30
2019-05-05T13:24:44.421Z,56.20
2019-05-05T13:27:19.410Z,57.90
2019-05-05T13:29:49.642Z,57.90
2019-05-05T13:32:19.868Z,57.20
2019-05-05T13:34:50.224Z,58.30
2019-05-05T13:37:21.678Z,58.30
2019-05-05T13:39:53.737Z,58.00
2019-05-05T13:42:24.390Z,58.00
2019-05-05T13:45:04.636Z,58.20
2019-05-05T13:47:34.827Z,58.80
2019-05-05T13:50:09.684Z,59.30
2019-05-05T13:52:39.989Z,59.20
2019-05-05T13:55:13.747Z,59.40
2019-05-05T13:57:45.247Z,59.40
2019-05-05T14:00:18.882Z,60.40
2019-05-05T14:02:49.177Z,62.00
2019-05-05T14:05:20.935Z,62.10
2019-05-05T14:07:53.656Z,62.60
2019-05-05T14:10:24.056Z,62.50
2019-05-05T14:12:54.206Z,62.00
2019-05-05T14:15:24.812Z,62.80
2019-05-05T14:17:55.164Z,66.20
2019-05-05T14:20:25.258Z,65.70
2019-05-05T14:22:56.434Z,67.20
2019-05-05T14:25:28.509Z,69.60
2019-05-05T14:27:58.799Z,70.30
2019-05-05T14:30:34.106Z,72.00
2019-05-05T14:33:06.578Z,72.50
2019-05-05T14:35:39.607Z,72.90
2019-05-05T14:38:17.536Z,75.60
2019-05-05T14:40:47.865Z,76.90
2019-05-05T14:43:18.874Z,79.50
2019-05-05T14:45:49.235Z,83.20
2019-05-05T14:48:19.433Z,83.30
2019-05-05T14:50:51.631Z,81.90
2019-05-05T14:53:23.615Z,82.70
2019-05-05T14:55:53.811Z,79.60
2019-05-05T14:58:23.883Z,82.60
2019-05-05T15:00:54.140Z,85.70
2019-05-05T15:03:24.367Z,86.80
2019-05-05T15:05:56.257Z,83.50
2019-05-05T15:08:43.911Z,85.50
2019-05-05T15:11:18.302Z,87.80
2019-05-05T15:14:06.798Z,86.00
2019-05-05T15:16:34.633Z,88.20
2019-05-05T15:19:04.787Z,84.40
2019-05-05T15:21:34.938Z,87.00
2019-05-05T15:24:05.294Z,88.10
2019-05-05T15:26:48.364Z,87.70
2019-05-05T15:29:07.575Z,87.80
2019-05-05T15:31:37.811Z,87.50
2019-05-05T15:34:07.929Z,88.40
2019-05-05T15:36:38.359Z,88.90
2019-05-05T15:39:09.476Z,86.50
2019-05-05T15:41:41.771Z,84.60
2019-05-05T15:44:13.418Z,87.50
2019-05-05T15:46:44.246Z,86.20
2019-05-05T15:49:14.707Z,85.60
2019-05-05T15:51:44.827Z,84.90
2019-05-05T15:54:15.269Z,86.90
2019-05-05T15:56:45.676Z,88.50
2019-05-05T15:59:17.335Z,87.00
2019-05-05T16:01:48.878Z,85.00
2019-05-05T16:04:19.229Z,88.10
2019-05-05T16:06:49.427Z,87.90
2019-05-05T16:09:20.190Z,90.00
2019-05-05T16:11:54.407Z,88.60
2019-05-05T16:14:24.201Z,90.00
2019-05-05T16:16:56.156Z,90.30
2019-05-05T16:19:29.503Z,88.70
2019-05-05T16:22:01.326Z,86.50
2019-05-05T16:24:36.593Z,87.00
2019-05-05T16:27:18.815Z,84.80
2019-05-05T16:29:39.362Z,86.50
2019-05-05T16:32:21.209Z,85.30
2019-05-05T16:34:41.196Z,84.30
2019-05-05T16:37:11.408Z,84.50
2019-05-05T16:39:41.623Z,86.40
2019-05-05T16:42:13.553Z,85.50
2019-05-05T16:44:43.411Z,85.90
2019-05-05T16:47:13.589Z,86.20
2019-05-05T16:49:45.250Z,85.80
2019-05-05T16:52:17.063Z,87.10
2019-05-05T16:54:48.767Z,86.40
2019-05-05T16:57:31.220Z,86.90
2019-05-05T16:59:50.785Z,85.90
2019-05-05T17:02:24.156Z,85.70
2019-05-05T17:04:53.878Z,84.00
2019-05-05T17:07:24.233Z,85.20
2019-05-05T17:09:54.317Z,86.00
2019-05-05T17:12:26.118Z,86.90
2019-05-05T17:14:57.981Z,86.30
2019-05-05T17:17:35.904Z,86.10
2019-05-05T17:20:09.695Z,84.90
2019-05-05T17:22:41.528Z,86.60
2019-05-05T17:25:13.961Z,86.20
2019-05-05T17:27:50.797Z,86.00
2019-05-05T17:30:18.926Z,88.00
2019-05-05T17:32:49.112Z,86.70
2019-05-05T17:35:19.392Z,86.50
2019-05-05T17:37:49.499Z,85.60
2019-05-05T17:40:24.276Z,85.00
2019-05-05T17:43:06.191Z,85.70
2019-05-05T17:45:55.149Z,87.40
2019-05-05T17:48:39.080Z,85.60
2019-05-05T17:51:10.852Z,86.10
2019-05-05T17:54:02.559Z,85.90
2019-05-05T17:56:33.597Z,85.40
2019-05-05T17:59:04.830Z,84.80
2019-05-05T18:01:35.055Z,85.10
2019-05-05T18:04:05.352Z,87.50
2019-05-05T18:06:39.884Z,87.20
2019-05-05T18:09:17.732Z,84.70
2019-05-05T18:12:07.956Z,84.10
2019-05-05T18:14:41.352Z,81.70
2019-05-05T18:17:13.679Z,83.60
2019-05-05T18:19:43.985Z,82.90
2019-05-05T18:22:14.055Z,84.50
2019-05-05T18:24:46.254Z,84.00
2019-05-05T18:27:16.369Z,85.20
2019-05-05T18:29:46.592Z,82.70
2019-05-05T18:32:18.897Z,84.30
2019-05-05T18:34:49.020Z,83.70
2019-05-05T18:37:19.346Z,82.20
2019-05-05T18:39:49.471Z,82.50
2019-05-05T18:42:21.079Z,84.00
2019-05-05T18:44:54.064Z,83.80
2019-05-05T18:47:25.573Z,84.80
2019-05-05T18:49:55.767Z,85.70
2019-05-05T18:52:25.829Z,86.30
2019-05-05T18:54:56.144Z,84.70
2019-05-05T18:57:26.226Z,84.90
2019-05-05T18:59:56.871Z,85.40
2019-05-05T19:02:37.465Z,85.40
2019-05-05T19:05:26.109Z,85.40
2019-05-05T19:08:00.769Z,86.30
2019-05-05T19:10:33.716Z,87.90
2019-05-05T19:13:03.911Z,86.90
2019-05-05T19:15:34.934Z,88.70
2019-05-05T19:18:06.545Z,86.70
2019-05-05T19:20:44.469Z,87.00
2019-05-05T19:23:14.773Z,87.40
2019-05-05T19:25:45.079Z,87.60
2019-05-05T19:28:15.205Z,88.00
2019-05-05T19:30:48.093Z,88.40
2019-05-05T19:33:18.204Z,87.70
2019-05-05T19:35:49.467Z,88.10
2019-05-05T19:38:19.683Z,88.20
2019-05-05T19:40:49.884Z,87.70
2019-05-05T19:43:19.945Z,87.90
2019-05-05T19:45:55.095Z,88.50
2019-05-05T19:48:25.981Z,87.40
2019-05-05T19:51:00.255Z,87.00
2019-05-05T19:53:30.548Z,88.20
2019-05-05T19:56:00.879Z,89.80
2019-05-05T19:58:31.029Z,89.20
2019-05-05T20:01:04.580Z,87.70
2019-05-05T20:03:36.843Z,90.30
2019-05-05T20:06:07.131Z,89.90
2019-05-05T20:08:41.388Z,89.50
2019-05-05T20:11:10.110Z,90.40
2019-05-05T20:13:40.362Z,91.10
2019-05-05T20:16:28.658Z,91.20
2019-05-05T20:18:58.873Z,90.20
2019-05-05T20:21:30.087Z,89.10
2019-05-05T20:24:00.404Z,90.00
2019-05-05T20:26:30.598Z,89.90
2019-05-05T20:29:11.662Z,88.70
2019-05-05T20:31:34.447Z,87.60
2019-05-05T20:34:05.978Z,88.60
2019-05-05T20:36:40.941Z,88.90
2019-05-05T20:39:13.925Z,89.60
2019-05-05T20:41:44.126Z,90.00
2019-05-05T20:44:15.780Z,89.00
2019-05-05T20:46:47.071Z,87.80
2019-05-05T20:49:20.460Z,89.50
2019-05-05T20:51:51.642Z,89.50
2019-05-05T20:54:25.724Z,89.10
2019-05-05T20:56:57.460Z,90.10
2019-05-05T20:59:30.877Z,89.40
2019-05-05T21:01:59.467Z,90.70
2019-05-05T21:04:29.658Z,90.80
2019-05-05T21:06:59.784Z,89.90
2019-05-05T21:09:30.008Z,90.00
2019-05-05T21:12:00.231Z,90.40
2019-05-05T21:14:35.413Z,88.60
2019-05-05T21:17:04.322Z,88.80
2019-05-05T21:19:34.768Z,88.20
2019-05-05T21:22:23.751Z,88.00
2019-05-05T21:24:54.401Z,87.80
2019-05-05T21:27:27.507Z,88.50
2019-05-05T21:29:58.653Z,90.20
2019-05-05T21:32:28.951Z,89.60
2019-05-05T21:34:59.073Z,89.20
2019-05-05T21:37:29.518Z,87.80
2019-05-05T21:39:59.632Z,90.30
2019-05-05T21:42:29.679Z,90.50
2019-05-05T21:44:59.883Z,90.10
2019-05-05T21:47:30.007Z,90.00
2019-05-05T21:50:03.602Z,90.40
2019-05-05T21:52:46.723Z,90.60
2019-05-05T21:55:18.500Z,90.80
2019-05-05T21:58:06.979Z,91.20
2019-05-05T22:03:39.676Z,91.50
2019-05-05T22:06:09.815Z,91.00
2019-05-05T22:08:43.156Z,91.30
2019-05-05T22:11:14.231Z,91.90
2019-05-05T22:13:45.926Z,92.00
2019-05-05T22:16:17.647Z,91.40
2019-05-05T22:18:55.375Z,92.10
2019-05-05T22:21:27.258Z,91.90
2019-05-05T22:24:15.888Z,91.90
2019-05-05T22:26:47.716Z,92.00
2019-05-05T22:29:18.031Z,91.60
2019-05-05T22:32:00.011Z,92.20
2019-05-05T22:34:30.303Z,92.30
2019-05-05T22:37:00.614Z,92.50
2019-05-05T22:39:33.804Z,92.40
2019-05-05T22:42:24.659Z,92.70
2019-05-05T22:44:58.136Z,92.10
2019-05-05T22:47:27.623Z,92.20
2019-05-05T22:49:57.747Z,92.20
2019-05-05T22:52:28.068Z,92.00
2019-05-05T22:54:58.400Z,92.80
2019-05-05T22:57:28.720Z,92.90
2019-05-05T22:59:59.033Z,92.30
2019-05-05T23:02:30.921Z,92.00
2019-05-05T23:05:08.565Z,91.80
2019-05-05T23:07:40.362Z,91.80
2019-05-05T23:10:10.758Z,92.10
2019-05-05T23:12:41.084Z,92.00
2019-05-05T23:15:11.474Z,92.50
2019-05-05T23:17:51.195Z,92.20
2019-05-05T23:21:02.406Z,92.30
2019-05-05T23:23:46.466Z,91.90
2019-05-05T23:26:18.362Z,91.40
2019-05-05T23:28:48.657Z,92.10
2019-05-05T23:31:20.501Z,91.70
2019-05-05T23:33:50.844Z,92.10
2019-05-05T23:36:21.119Z,92.20
2019-05-05T23:38:51.439Z,92.30
2019-05-05T23:41:23.751Z,92.60
2019-05-05T23:43:54.462Z,92.00
2019-05-05T23:46:25.625Z,91.50
2019-05-05T23:48:55.894Z,92.20
2019-05-05T23:51:26.203Z,92.00
2019-05-05T23:53:56.545Z,92.00
2019-05-05T23:56:26.826Z,92.10
2019-05-05T23:58:57.075Z,91.80
